Wainwright, Canada
Current Conditions -  °F | °C
As of 3:01 AM on Friday 28 Nov 2014 (Local Time) from CYLL Reporting Station
Light Snow Light Snow  
Wind Chill: -24°   Ceiling: 1900
Heat Index: -2°   Visibility: 2mi
Dew Point: -8°   Wind: 17mph
Humidity: 78%   Direction: 60°ENE
Pressure: 29.81"   Gusts: 24mph
Location:  52.83°N, 110.87°W
Report Text: CYLL 281001Z AUTO 06015G21KT 2SM -SN OVC019 M19/M22 A2981 RMK SLP158
Loading
Personal Weather Stations






























Interactive Weather Map New forecast layout! Learn more

10-Day Weather Forecast

Advertisements
Track Severe Weather on mobile